EDDT Airport Information

Runway Information
Runway 08L Length 9918 ft width 151 ft
Elevation 110 ft Threshold 0 ft Heading 81
Runway 26R Length 9918 ft Width 151 ft
Elevation 117 ft Threshold 0 ft Heading 261
Runway 08R Length 7966 ft width 151 ft
Elevation 109 ft Threshold 341 ft Heading 81
Runway 26L Length 7966 ft Width 151 ft
Elevation 122 ft Threshold 722 ft Heading 261
Airport Frequencies
Type AFIS Name BERLIN INF Frequency 132.65 MHZ
Type APP Name BERLIN ARR Frequency 119.625 MHZ
Type ATIS Name ATIS Frequency 125.9 MHZ
Type DEP Name BERLIN DEP Frequency 120.625 MHZ
Type DIR Name BERLIN DIR Frequency 136.1 MHZ
Type GND Name GND Frequency 121.925 MHZ
Type RMP Name BERLIN MIL Frequency 136 MHZ
Type TWR Name TWR Frequency 124.525 MHZ
Airport Navaids
Type NDB Name Tegel East Frequency 321 KHZ
Type NDB Name Tegel West Frequency 392 KHZ
Type VOR-DME Name Tegel Frequency 112300 KHZ
Airport Weather Information & NOTAM
ADDS - METARS form results

(1708 UTC 03 August 2020)
Data provider http://aviationweather.gov/metar/data/
 
METAR text: EDDT 031650Z 33007KT 280V020 CAVOK 23/08 Q1010 NOSIG
Conditions at: EDDT (BERLIN/TEGEL (FA, DE) observed 1650 UTC 03 August 2020
Temperature: 23.0°C (73°F)
Dewpoint: 8.0°C (46°F) [RH = 38%]
Pressure (altimeter): 29.82 inches Hg (1010.0 mb)
Winds: from the NNW (330 degrees) at 8 MPH (7 knots; 3.6 m/s)
Visibility: 6 or more miles (10+ km)
Ceiling: ceiling and visibility are OK
Clouds: unknown
Weather: no significant weather observed at this time

METAR text: EDDT 031620Z 33008KT 280V020 CAVOK 23/07 Q1010 NOSIG
Conditions at: EDDT (BERLIN/TEGEL (FA, DE) observed 1620 UTC 03 August 2020
Temperature: 23.0°C (73°F)
Dewpoint: 7.0°C (45°F) [RH = 36%]
Pressure (altimeter): 29.82 inches Hg (1010.0 mb)
Winds: from the NNW (330 degrees) at 9 MPH (8 knots; 4.1 m/s)
Visibility: 6 or more miles (10+ km)
Ceiling: ceiling and visibility are OK
Clouds: unknown
Weather: no significant weather observed at this time

Forecast for: EDDT (BERLIN/TEGEL (FA, DE)
Text: TAF EDDT 031100Z 0312/0412 35007KT 9999 SCT040
Forecast period: 1200 UTC 03 August 2020 to 1200 UTC 04 August 2020
Forecast type: FROM: standard forecast or significant change
Winds: from the N (350 degrees) at 8 MPH (7 knots; 3.6 m/s)
Visibility: 6 or more miles 10+ km)
Ceiling: at least 12,000 feet AGL
Clouds: scattered clouds at 4000 feet AGL
Weather: no significant weather forecast for this period